Time;durP1;ratioP1;P1;durP2;ratioP2;P2;SDS_P1;SDS_P2;PMS_P1;PMS_P2;Temp;Humidity;BMP_temperature;BMP_pressure;BME280_temperature;BME280_humidity;BME280_pressure;Samples;Min_cycle;Max_cycle;Signal;HPM_P1;HPM_P2
2024/04/22 00:02:32;;;;;;;6.60;4.50;;;;;;;3.09;97.52;100825.84;178279;1262;59166;-84
2024/04/22 00:06:35;;;;;;;7.40;5.90;;;;;;;2.97;98.76;100826.84;178059;1261;46081;-83
2024/04/22 00:10:38;;;;;;;10.90;7.20;;;;;;;2.86;98.76;100823.27;178489;1262;46101;-85
2024/04/22 00:14:41;;;;;;;11.40;8.10;;;;;;;2.77;99.69;100825.05;177549;1262;46266;-86
2024/04/22 00:18:45;;;;;;;13.00;8.00;;;;;;;2.69;100.00;100817.63;178290;1262;47392;-85
2024/04/22 00:22:49;;;;;;;9.00;7.10;;;;;;;2.62;100.00;100823.89;177837;1262;59561;-84
2024/04/22 00:26:52;;;;;;;11.00;8.20;;;;;;;2.52;100.00;100822.49;177966;1263;46106;-85
2024/04/22 00:30:55;;;;;;;9.30;6.10;;;;;;;2.47;100.00;100822.54;177661;1263;46077;-84
2024/04/22 00:34:59;;;;;;;8.10;6.10;;;;;;;2.45;100.00;100822.98;177400;1263;44846;-84
2024/04/22 00:39:02;;;;;;;12.50;6.60;;;;;;;2.43;100.00;100818.65;178281;1263;44541;-82
2024/04/22 00:43:05;;;;;;;16.00;6.30;;;;;;;2.44;100.00;100820.52;176942;1263;60214;-84
2024/04/22 00:47:09;;;;;;;8.40;4.90;;;;;;;2.45;100.00;100814.73;177114;1264;46331;-83
2024/04/22 00:51:12;;;;;;;6.90;4.60;;;;;;;2.46;100.00;100817.66;177444;1263;46107;-81
2024/04/22 00:55:15;;;;;;;9.90;5.70;;;;;;;2.49;100.00;100813.19;177437;1263;45986;-83
2024/04/22 00:59:18;;;;;;;12.60;5.80;;;;;;;2.49;99.98;100813.68;178092;1263;44572;-85
2024/04/22 01:03:22;;;;;;;6.50;5.00;;;;;;;2.38;99.79;100813.95;178066;1263;58259;-83
2024/04/22 01:07:26;;;;;;;8.70;5.30;;;;;;;2.22;99.90;100807.91;177692;1263;46101;-85
2024/04/22 01:11:29;;;;;;;8.40;4.90;;;;;;;2.08;99.96;100807.04;178879;1263;46100;-84
2024/04/22 01:15:33;;;;;;;11.00;6.90;;;;;;;2.03;100.00;100803.55;178129;1263;46107;-86
2024/04/22 01:19:35;;;;;;;8.60;6.30;;;;;;;1.99;99.87;100804.39;178008;1263;46046;-84
2024/04/22 01:23:40;;;;;;;8.80;6.00;;;;;;;1.95;99.42;100801.56;177350;1265;58339;-85
2024/04/22 01:27:43;;;;;;;12.20;7.10;;;;;;;1.89;98.65;100800.77;177698;1262;46421;-85
2024/04/22 01:31:46;;;;;;;13.90;6.80;;;;;;;1.83;98.42;100799.57;178949;1262;46108;-86
2024/04/22 01:35:49;;;;;;;13.00;6.40;;;;;;;1.77;98.22;100801.17;177247;1263;46065;-87
2024/04/22 01:39:53;;;;;;;10.60;6.20;;;;;;;1.70;98.62;100803.55;177849;1262;46115;-86
2024/04/22 01:43:55;;;;;;;7.30;4.90;;;;;;;1.64;99.66;100808.14;180529;1262;58274;-83
2024/04/22 01:47:58;;;;;;;8.60;6.50;;;;;;;1.56;100.00;100804.56;177966;1262;45999;-84
2024/04/22 01:52:01;;;;;;;8.70;5.50;;;;;;;1.52;100.00;100803.81;178283;1262;45132;-84
2024/04/22 01:56:04;;;;;;;8.50;6.20;;;;;;;1.48;100.00;100799.95;179051;1262;46105;-83
2024/04/22 02:00:07;;;;;;;6.00;4.50;;;;;;;1.44;100.00;100796.95;178769;1262;46553;-84
2024/04/22 02:04:10;;;;;;;7.30;4.50;;;;;;;1.42;100.00;100795.10;179855;1262;58307;-85
2024/04/22 02:08:13;;;;;;;6.50;4.70;;;;;;;1.30;100.00;100795.02;177825;1262;46567;-84
2024/04/22 02:12:16;;;;;;;7.70;4.90;;;;;;;1.18;100.00;100793.66;177383;1262;46088;-84
2024/04/22 02:16:19;;;;;;;8.30;4.90;;;;;;;1.11;100.00;100792.14;177555;1262;46071;-82
2024/04/22 02:20:22;;;;;;;7.80;4.80;;;;;;;1.09;100.00;100794.67;178303;1262;44847;-84
2024/04/22 02:24:25;;;;;;;5.50;4.10;;;;;;;1.07;100.00;100798.56;177875;1262;58985;-83
2024/04/22 02:28:28;;;;;;;6.10;5.50;;;;;;;1.05;100.00;100799.35;179397;1262;46083;-83
2024/04/22 02:32:31;;;;;;;12.00;4.70;;;;;;;1.04;100.00;100800.95;177533;1263;46107;-84
2024/04/22 02:36:35;;;;;;;6.80;4.70;;;;;;;1.02;100.00;100801.71;178777;1263;46076;-84
2024/04/22 02:40:37;;;;;;;7.80;5.10;;;;;;;0.96;100.00;100800.15;178337;1262;45870;-84
2024/04/22 02:44:44;;;;;;;7.40;3.80;;;;;;;0.95;100.00;100802.77;179214;1262;59953;-83
2024/04/22 02:48:47;;;;;;;6.30;4.50;;;;;;;1.01;100.00;100804.00;178825;1262;46085;-85
2024/04/22 02:52:50;;;;;;;5.70;4.10;;;;;;;1.06;100.00;100803.70;179312;1262;45882;-84
2024/04/22 02:56:57;;;;;;;13.40;4.60;;;;;;;1.11;100.00;100799.98;177996;1262;46023;-85
2024/04/22 03:01:05;;;;;;;7.20;4.20;;;;;;;1.17;100.00;100798.56;178398;1262;46112;-82
2024/04/22 03:05:08;;;;;;;6.40;4.90;;;;;;;1.13;100.00;100800.98;177767;1262;58292;-84
2024/04/22 03:09:11;;;;;;;15.00;5.10;;;;;;;1.05;100.00;100802.13;178337;1263;46153;-82
2024/04/22 03:13:14;;;;;;;10.30;6.70;;;;;;;1.02;100.00;100798.23;178625;1262;45878;-85
2024/04/22 03:17:17;;;;;;;11.60;5.70;;;;;;;1.04;100.00;100800.95;179488;1262;44016;-85
2024/04/22 03:21:20;;;;;;;11.60;6.20;;;;;;;1.07;100.00;100801.02;178280;1262;46001;-85
2024/04/22 03:25:23;;;;;;;10.00;6.80;;;;;;;1.10;100.00;100801.80;179079;1262;59249;-84
2024/04/22 03:29:27;;;;;;;11.80;6.50;;;;;;;1.09;100.00;100802.18;178643;1262;44451;-85
2024/04/22 03:33:30;;;;;;;13.10;8.60;;;;;;;1.08;100.00;100802.36;178207;1262;44856;-84
2024/04/22 03:37:34;;;;;;;15.30;10.30;;;;;;;1.06;100.00;100798.77;179619;1262;44789;-79
2024/04/22 03:41:37;;;;;;;14.40;9.90;;;;;;;1.03;100.00;100792.78;179870;1262;47470;-83
2024/04/22 03:45:44;;;;;;;12.60;9.70;;;;;;;1.01;100.00;100790.05;177705;1263;57925;-85
2024/04/22 03:49:55;;;;;;;13.10;8.90;;;;;;;0.98;100.00;100796.60;178190;1262;44759;-86
2024/04/22 03:53:58;;;;;;;17.40;9.00;;;;;;;0.96;100.00;100795.09;177465;1262;45871;-82
2024/04/22 03:58:01;;;;;;;19.10;9.30;;;;;;;0.94;100.00;100795.84;178896;1262;45985;-84
2024/04/22 04:02:05;;;;;;;14.90;10.00;;;;;;;0.93;100.00;100793.97;177950;1262;45995;-84
2024/04/22 04:06:08;;;;;;;11.40;8.80;;;;;;;0.96;100.00;100790.20;177769;1261;58612;-80
2024/04/22 04:10:11;;;;;;;17.00;10.20;;;;;;;1.03;100.00;100789.61;177896;1262;45992;-80
2024/04/22 04:14:14;;;;;;;15.40;10.30;;;;;;;1.49;100.00;100791.35;178201;1262;46155;-85
2024/04/22 04:18:17;;;;;;;15.80;9.80;;;;;;;2.05;99.85;100793.84;177507;1262;46018;-80
2024/04/22 04:22:20;;;;;;;8.10;6.50;;;;;;;2.17;98.01;100799.89;178588;1262;46110;-84
2024/04/22 04:26:23;;;;;;;12.20;7.20;;;;;;;2.12;97.73;100805.83;177958;1261;59764;-84
2024/04/22 04:30:26;;;;;;;14.40;10.00;;;;;;;2.60;98.42;100806.27;179378;1262;46202;-85
2024/04/22 04:34:29;;;;;;;14.50;9.20;;;;;;;3.29;94.54;100803.94;178526;1262;45957;-82
2024/04/22 04:38:33;;;;;;;14.80;8.60;;;;;;;4.04;91.90;100809.42;178577;1262;45969;-84
2024/04/22 04:42:36;;;;;;;12.90;8.80;;;;;;;4.74;88.72;100809.42;177449;1266;44160;-83
2024/04/22 04:46:39;;;;;;;12.30;8.00;;;;;;;5.33;84.77;100803.91;178087;1262;57123;-85
2024/04/22 04:50:43;;;;;;;16.10;10.00;;;;;;;5.23;80.68;100803.20;176874;1262;44274;-84
2024/04/22 04:54:45;;;;;;;12.00;7.70;;;;;;;4.62;81.32;100811.25;177599;1262;45920;-84
2024/04/22 04:58:50;;;;;;;14.60;8.90;;;;;;;4.02;83.54;100818.65;177503;1265;46103;-85
2024/04/22 05:02:53;;;;;;;14.60;9.00;;;;;;;3.56;86.45;100821.92;177407;1265;46072;-83
2024/04/22 05:06:56;;;;;;;14.40;9.50;;;;;;;3.09;89.08;100821.80;177698;1262;60185;-85
2024/04/22 05:11:03;;;;;;;12.60;9.60;;;;;;;2.73;92.21;100826.59;177463;1262;46005;-84
2024/04/22 05:15:06;;;;;;;13.30;9.60;;;;;;;2.39;94.75;100833.19;177387;1262;46040;-82
2024/04/22 05:19:09;;;;;;;12.40;7.40;;;;;;;2.14;97.23;100832.19;178257;1262;46098;-85
2024/04/22 05:23:12;;;;;;;12.60;8.80;;;;;;;2.00;97.88;100831.27;177786;1262;44183;-82
2024/04/22 05:27:15;;;;;;;16.00;8.40;;;;;;;1.94;98.96;100837.14;178013;1263;58253;-85
2024/04/22 05:31:18;;;;;;;15.10;10.60;;;;;;;1.89;99.65;100835.75;180051;1262;43916;-81
2024/04/22 05:39:42;;;;;;;14.60;8.40;;;;;;;1.74;100.00;100845.02;177831;1262;46887;-82
2024/04/22 05:43:48;;;;;;;;;;;;;;;1.74;100.00;100846.77;177708;1264;45821;-85
2024/04/22 05:47:51;;;;;;;16.50;8.90;;;;;;;1.75;100.00;100847.08;177520;1262;59080;-85
2024/04/22 05:51:54;;;;;;;18.70;9.40;;;;;;;1.84;100.00;100850.80;178473;1262;45687;-84
2024/04/22 05:55:57;;;;;;;16.70;9.90;;;;;;;1.88;100.00;100844.52;177860;1262;45900;-83
2024/04/22 06:00:00;;;;;;;14.20;9.00;;;;;;;1.93;99.96;100845.39;177685;1262;46219;-85
2024/04/22 06:04:04;;;;;;;16.10;9.00;;;;;;;2.05;100.00;100843.21;177550;1263;46420;-84
2024/04/22 06:08:07;;;;;;;12.40;8.30;;;;;;;2.24;99.99;100844.59;178183;1263;59696;-84
2024/04/22 06:12:10;;;;;;;11.40;7.40;;;;;;;2.40;99.32;100845.71;177827;1262;46037;-83
2024/04/22 06:16:21;;;;;;;12.40;6.60;;;;;;;2.57;94.09;100846.66;177736;1266;45999;-83
2024/04/22 06:20:24;;;;;;;15.10;8.00;;;;;;;2.79;93.63;100848.42;177363;1262;46060;-85
2024/04/22 06:24:27;;;;;;;13.00;6.70;;;;;;;3.00;91.51;100841.27;178732;1263;46313;-85
2024/04/22 06:28:31;;;;;;;11.30;6.80;;;;;;;3.14;91.64;100845.08;178091;1262;59725;-84
2024/04/22 06:32:35;;;;;;;12.50;7.20;;;;;;;3.26;89.45;100853.68;177687;1263;44428;-84
2024/04/22 06:36:39;;;;;;;19.60;7.30;;;;;;;3.60;89.47;100851.39;177857;1262;44090;-84
2024/04/22 06:40:42;;;;;;;9.90;5.70;;;;;;;3.90;87.12;100855.67;177584;1262;46116;-83
2024/04/22 06:44:45;;;;;;;9.80;6.30;;;;;;;4.12;84.77;100857.67;178867;1262;46145;-84
2024/04/22 06:48:48;;;;;;;10.60;7.20;;;;;;;4.29;81.36;100862.38;177652;1262;58690;-82
2024/04/22 06:52:51;;;;;;;8.20;6.30;;;;;;;4.50;78.76;100860.49;177348;1262;44838;-82
2024/04/22 06:56:54;;;;;;;9.00;6.50;;;;;;;4.77;76.53;100857.84;177805;1263;46517;-84
2024/04/22 07:00:57;;;;;;;10.70;5.90;;;;;;;4.98;75.50;100855.60;177350;1262;46595;-84
2024/04/22 07:04:59;;;;;;;9.60;5.80;;;;;;;5.13;74.54;100844.82;178009;1262;45888;-84
2024/04/22 07:09:09;;;;;;;9.80;5.50;;;;;;;5.20;73.54;100841.84;177452;1262;59155;-85
2024/04/22 07:13:13;;;;;;;9.00;3.50;;;;;;;5.33;70.88;100840.52;177517;1262;46209;-86
2024/04/22 07:17:16;;;;;;;5.80;3.70;;;;;;;5.43;71.60;100838.92;177609;1262;44009;-81
2024/04/22 07:21:19;;;;;;;5.40;4.40;;;;;;;5.60;69.56;100838.39;178151;1262;45993;-84
2024/04/22 07:25:22;;;;;;;7.00;4.30;;;;;;;5.80;69.14;100842.63;178134;1263;46038;-84
2024/04/22 07:29:26;;;;;;;7.80;4.50;;;;;;;5.91;68.55;100842.09;178863;1266;59892;-84
2024/04/22 07:33:29;;;;;;;4.70;3.50;;;;;;;6.20;67.44;100843.73;179799;1262;44570;-83
2024/04/22 07:37:44;;;;;;;7.50;4.40;;;;;;;6.61;68.82;100842.88;180272;1262;44082;-84
2024/04/22 07:41:47;;;;;;;4.10;2.60;;;;;;;6.80;64.26;100847.12;177070;1263;46127;-85
2024/04/22 07:45:50;;;;;;;4.90;3.30;;;;;;;6.68;61.57;100848.15;177669;1262;46129;-82
2024/04/22 07:49:53;;;;;;;4.50;3.00;;;;;;;6.44;63.87;100848.75;177741;1262;59582;-82
2024/04/22 07:53:58;;;;;;;4.60;3.20;;;;;;;6.04;63.74;100849.67;177399;1265;46128;-80
2024/04/22 07:58:01;;;;;;;3.80;3.40;;;;;;;5.87;64.57;100845.98;177321;1264;46437;-81
2024/04/22 08:02:05;;;;;;;2.60;1.80;;;;;;;5.74;65.55;100850.38;177617;1263;46120;-80
2024/04/22 08:06:22;;;;;;;11.70;3.00;;;;;;;5.72;63.18;100850.30;177433;1262;45994;-82
2024/04/22 08:10:27;;;;;;;1.90;1.40;;;;;;;5.88;59.81;100854.88;177393;1266;57545;-82
2024/04/22 08:14:30;;;;;;;1.80;1.70;;;;;;;6.16;61.36;100851.18;177403;1266;45994;-83
2024/04/22 08:18:33;;;;;;;1.80;1.40;;;;;;;6.28;58.81;100859.71;178032;1263;46109;-83
2024/04/22 08:22:36;;;;;;;2.40;2.10;;;;;;;6.17;61.08;100864.13;178138;1262;46003;-81
2024/04/22 08:26:39;;;;;;;1.10;1.00;;;;;;;6.04;59.04;100860.60;178181;1262;209335;-81
2024/04/22 08:30:42;;;;;;;4.60;2.10;;;;;;;5.91;58.08;100867.25;177223;1264;59898;-81
2024/04/22 08:34:45;;;;;;;2.30;1.60;;;;;;;5.81;59.74;100863.90;177615;1267;46028;-80
2024/04/22 08:38:48;;;;;;;5.10;1.50;;;;;;;5.66;61.27;100869.77;179922;1264;45999;-81
2024/04/22 08:42:51;;;;;;;2.50;1.80;;;;;;;5.57;62.06;100866.88;177699;1262;46161;-81
2024/04/22 08:46:54;;;;;;;1.70;1.50;;;;;;;5.49;62.88;100863.95;177232;1265;46111;-80
2024/04/22 08:51:00;;;;;;;4.90;1.80;;;;;;;5.39;62.12;100863.38;177801;1266;57857;-81
2024/04/22 08:55:03;;;;;;;2.30;2.00;;;;;;;5.41;64.42;100869.12;179109;1262;46100;-81
2024/04/22 08:59:06;;;;;;;2.60;1.20;;;;;;;5.39;61.90;100868.48;178909;1263;44366;-81
2024/04/22 09:03:13;;;;;;;2.50;1.90;;;;;;;5.44;65.12;100870.54;176497;1264;46703;-81
2024/04/22 09:07:17;;;;;;;2.90;2.30;;;;;;;5.43;65.60;100874.99;178591;1262;46004;-81
2024/04/22 09:11:21;;;;;;;5.60;1.80;;;;;;;5.38;66.27;100878.24;176958;1267;58164;-83
2024/04/22 09:15:44;;;;;;;5.10;2.50;;;;;;;5.43;64.41;100870.95;179361;1266;46148;-84
2024/04/22 09:19:47;;;;;;;1.40;1.30;;;;;;;5.51;64.12;100871.59;178353;1268;46058;-81
2024/04/22 09:23:50;;;;;;;3.50;1.70;;;;;;;5.69;61.47;100871.58;177358;1262;46131;-85
2024/04/22 09:27:54;;;;;;;3.20;2.00;;;;;;;5.74;61.74;100873.05;177415;1262;46104;-85
2024/04/22 09:32:00;;;;;;;1.60;1.50;;;;;;;5.96;61.30;100872.80;177557;1266;60360;-82
2024/04/22 09:36:05;;;;;;;2.30;1.70;;;;;;;6.03;58.85;100872.26;177313;1262;46148;-85
2024/04/22 09:40:10;;;;;;;2.00;1.50;;;;;;;5.99;61.78;100875.97;177254;1266;46196;-83
2024/04/22 09:44:15;;;;;;;4.60;1.30;;;;;;;5.88;58.81;100875.14;178228;1262;44277;-82
2024/04/22 09:48:22;;;;;;;2.40;1.40;;;;;;;5.89;57.61;100874.05;179345;1262;43945;-84
2024/04/22 09:52:26;;;;;;;1.20;1.00;;;;;;;6.02;58.10;100871.08;179141;1266;57943;-80
2024/04/22 09:56:33;;;;;;;3.20;1.00;;;;;;;6.31;56.46;100866.58;177857;1266;46102;-84
2024/04/22 10:00:37;;;;;;;1.50;1.00;;;;;;;6.53;57.04;100871.39;178037;1263;45959;-83
2024/04/22 10:04:40;;;;;;;1.80;1.60;;;;;;;6.69;56.84;100866.95;177710;1266;44369;-82
2024/04/22 10:08:46;;;;;;;1.50;1.30;;;;;;;6.74;56.28;100867.76;178300;1264;46138;-80
2024/04/22 10:12:49;;;;;;;2.90;1.40;;;;;;;6.76;56.25;100871.70;177484;1262;59659;-83
2024/04/22 10:16:56;;;;;;;1.50;1.40;;;;;;;6.81;55.41;100861.87;177169;1263;46118;-84
2024/04/22 10:21:02;;;;;;;2.30;1.30;;;;;;;6.97;55.03;100860.96;177295;1263;46115;-82
2024/04/22 10:25:08;;;;;;;1.20;1.00;;;;;;;7.04;56.33;100862.14;177849;1263;45921;-83
2024/04/22 10:29:12;;;;;;;3.20;1.10;;;;;;;7.05;53.88;100864.95;177509;1263;46128;-82
2024/04/22 10:33:15;;;;;;;1.90;1.40;;;;;;;7.09;53.23;100865.42;177990;1262;58187;-81
2024/04/22 10:37:18;;;;;;;2.00;1.00;;;;;;;7.13;54.68;100864.79;177962;1266;46079;-83
2024/04/22 10:41:21;;;;;;;1.90;1.70;;;;;;;6.97;55.12;100864.66;177437;1262;46135;-84
2024/04/22 10:45:24;;;;;;;1.70;1.30;;;;;;;6.73;53.50;100863.70;177967;1263;46140;-79
2024/04/22 10:49:30;;;;;;;2.90;1.90;;;;;;;6.66;57.00;100861.42;177854;1262;45274;-82
2024/04/22 10:53:33;;;;;;;4.60;2.10;;;;;;;6.63;56.85;100859.34;177965;1264;59383;-82
2024/04/22 10:57:38;;;;;;;1.40;1.00;;;;;;;6.61;58.06;100859.13;177876;1262;46031;-82
2024/04/22 11:01:42;;;;;;;3.50;0.90;;;;;;;6.51;56.10;100854.71;178024;1266;46295;-82
2024/04/22 11:05:47;;;;;;;3.70;1.30;;;;;;;6.53;56.55;100851.61;177995;1263;46178;-82
2024/04/22 11:09:51;;;;;;;2.00;1.00;;;;;;;6.57;55.92;100856.16;177064;1266;46215;-82
2024/04/22 11:13:54;;;;;;;0.70;0.60;;;;;;;6.80;55.26;100844.12;177745;1262;59700;-82
2024/04/22 11:18:07;;;;;;;2.10;1.00;;;;;;;6.93;57.36;100846.59;177629;1267;46040;-82
2024/04/22 11:22:10;;;;;;;2.70;1.30;;;;;;;6.71;58.74;100848.14;177324;1264;46083;-82
2024/04/22 11:26:13;;;;;;;1.00;0.80;;;;;;;6.80;60.16;100845.89;178296;1262;46203;-83
2024/04/22 11:30:16;;;;;;;2.70;1.40;;;;;;;7.02;57.64;100843.77;179011;1264;45908;-82
2024/04/22 11:34:21;;;;;;;3.70;1.30;;;;;;;7.19;57.83;100839.45;178157;1262;58651;-81
2024/04/22 11:38:27;;;;;;;1.70;1.60;;;;;;;7.35;61.04;100837.92;178123;1262;46078;-82
2024/04/22 11:42:30;;;;;;;2.70;2.00;;;;;;;7.39;56.52;100842.33;177096;1264;45970;-83
2024/04/22 11:46:33;;;;;;;1.30;1.00;;;;;;;7.61;57.18;100833.97;177684;1264;46026;-83
2024/04/22 11:50:36;;;;;;;4.60;3.10;;;;;;;7.46;53.41;100830.27;177107;1262;45996;-82
2024/04/22 11:54:44;;;;;;;1.90;1.80;;;;;;;7.32;53.84;100831.48;177378;1264;59668;-82
2024/04/22 11:58:47;;;;;;;1.20;1.10;;;;;;;7.18;54.98;100835.45;177101;1266;46110;-82
2024/04/22 12:02:50;;;;;;;2.80;0.80;;;;;;;6.68;57.97;100834.19;177374;1266;44564;-82
2024/04/22 12:06:53;;;;;;;7.50;5.80;;;;;;;6.20;59.32;100836.68;177970;1264;46003;-80
2024/04/22 12:10:56;;;;;;;2.40;2.00;;;;;;;6.13;59.75;100835.30;177448;1265;46125;-81
2024/04/22 12:14:59;;;;;;;1.20;1.10;;;;;;;6.07;59.01;100841.09;177353;1264;58175;-79
2024/04/22 12:19:07;;;;;;;4.20;1.70;;;;;;;6.19;57.87;100837.63;177898;1264;46046;-82
2024/04/22 12:23:10;;;;;;;2.30;1.50;;;;;;;6.46;59.32;100830.35;177596;1262;46027;-81
2024/04/22 12:27:13;;;;;;;4.60;1.80;;;;;;;6.88;58.45;100825.36;177476;1266;46233;-82
2024/04/22 12:31:16;;;;;;;1.30;1.20;;;;;;;7.14;56.06;100828.05;178051;1263;46100;-81
2024/04/22 12:35:18;;;;;;;2.30;2.10;;;;;;;7.24;54.61;100823.58;178378;1264;58008;-81
2024/04/22 12:39:21;;;;;;;1.70;1.10;;;;;;;7.27;55.00;100828.02;178971;1264;46113;-80
2024/04/22 12:43:24;;;;;;;1.40;1.00;;;;;;;7.17;55.94;100825.42;178648;1262;46046;-82
2024/04/22 12:51:49;;;;;;;2.20;1.00;;;;;;;6.94;56.19;100831.33;178361;1262;45834;-81
2024/04/22 12:55:51;;;;;;;1.40;1.30;;;;;;;6.77;58.15;100835.44;177685;1264;59712;-82
2024/04/22 12:59:56;;;;;;;4.90;4.00;;;;;;;6.40;61.63;100838.42;179311;1263;46089;-82
2024/04/22 13:04:00;;;;;;;6.70;4.00;;;;;;;6.25;60.48;100838.55;179042;1263;44113;-81
2024/04/22 13:08:03;;;;;;;4.80;3.80;;;;;;;6.13;59.70;100840.02;179410;1262;45281;-81
2024/04/22 13:12:06;;;;;;;1.40;1.30;;;;;;;6.10;59.72;100842.48;179772;1264;44168;-82
2024/04/22 13:16:09;;;;;;;1.90;0.90;;;;;;;6.14;60.71;100847.41;178854;1263;57947;-82
2024/04/22 13:20:11;;;;;;;1.80;1.10;;;;;;;6.17;60.33;100850.23;178895;1263;44295;-82
2024/04/22 13:24:14;;;;;;;1.70;1.40;;;;;;;6.36;60.46;100852.92;178009;1264;46038;-82
2024/04/22 13:28:17;;;;;;;1.40;1.20;;;;;;;6.53;59.49;100852.99;179037;1262;45970;-81
2024/04/22 13:32:25;;;;;;;1.90;1.30;;;;;;;6.64;59.60;100853.84;177707;1264;46132;-82
2024/04/22 13:36:28;;;;;;;1.60;0.90;;;;;;;6.76;59.25;100853.36;177602;1264;58078;-82
2024/04/22 13:40:31;;;;;;;3.20;2.10;;;;;;;6.69;58.53;100850.36;177687;1266;46020;-83
2024/04/22 13:44:34;;;;;;;3.20;1.10;;;;;;;6.63;62.04;100854.94;178258;1264;46157;-83
2024/04/22 13:48:37;;;;;;;5.70;1.50;;;;;;;6.40;60.95;100854.79;177760;1263;45023;-82
2024/04/22 13:52:45;;;;;;;1.40;1.30;;;;;;;6.42;61.65;100852.20;178312;1264;45983;-82
2024/04/22 13:56:47;;;;;;;1.40;1.30;;;;;;;6.48;62.75;100847.30;177663;1263;60236;-82
2024/04/22 14:00:50;;;;;;;8.50;2.60;;;;;;;6.65;63.38;100844.05;177018;1264;46129;-83
2024/04/22 14:04:53;;;;;;;2.50;1.30;;;;;;;6.73;60.53;100838.35;177658;1264;46115;-82
2024/04/22 14:08:56;;;;;;;1.80;1.10;;;;;;;6.84;60.48;100838.81;177550;1264;46118;-81
2024/04/22 14:12:59;;;;;;;1.30;1.10;;;;;;;6.74;58.56;100842.70;178964;1262;45990;-82
2024/04/22 14:17:02;;;;;;;4.50;2.30;;;;;;;6.71;59.44;100843.40;178412;1265;59671;-82
2024/04/22 14:21:09;;;;;;;1.90;1.20;;;;;;;6.73;61.13;100850.85;178090;1263;45877;-82
2024/04/22 14:25:12;;;;;;;2.30;1.80;;;;;;;6.75;61.44;100852.89;179200;1263;44185;-80
2024/04/22 14:29:15;;;;;;;2.40;1.50;;;;;;;6.73;62.39;100856.17;178100;1262;45984;-82
2024/04/22 14:33:18;;;;;;;1.20;1.00;;;;;;;6.59;62.99;100854.98;178001;1262;46012;-82
2024/04/22 14:37:25;;;;;;;2.00;1.00;;;;;;;6.49;65.44;100857.67;178209;1264;59629;-81
2024/04/22 14:41:28;;;;;;;2.80;1.60;;;;;;;6.27;64.21;100858.86;178544;1262;46238;-82
2024/04/22 14:45:31;;;;;;;2.50;1.40;;;;;;;6.11;64.90;100856.89;180714;1262;44160;-81
2024/04/22 14:49:34;;;;;;;4.50;1.70;;;;;;;6.04;66.68;100855.34;179114;1263;44057;-82
2024/04/22 14:53:37;;;;;;;1.90;1.50;;;;;;;6.04;65.78;100856.55;179814;1262;46112;-82
2024/04/22 14:57:41;;;;;;;2.00;1.40;;;;;;;6.06;67.54;100850.43;179239;1262;58271;-82
2024/04/22 15:01:44;;;;;;;2.70;2.40;;;;;;;6.07;68.45;100850.39;180377;1262;44336;-82
2024/04/22 15:05:47;;;;;;;2.60;1.60;;;;;;;6.02;65.13;100850.66;178012;1263;46129;-81
2024/04/22 15:09:50;;;;;;;3.10;2.70;;;;;;;5.98;62.63;100853.84;178098;1264;46004;-82
2024/04/22 15:13:54;;;;;;;1.80;1.70;;;;;;;5.98;66.31;100851.58;177373;1262;46231;-82
2024/04/22 15:17:57;;;;;;;4.70;1.90;;;;;;;6.06;67.18;100851.86;178849;1262;58295;-82
2024/04/22 15:22:00;;;;;;;3.00;2.60;;;;;;;6.12;65.85;100853.48;178820;1261;44050;-82
2024/04/22 15:26:03;;;;;;;17.60;10.50;;;;;;;6.23;64.01;100849.91;180315;1262;44267;-82
2024/04/22 15:30:06;;;;;;;6.60;3.70;;;;;;;6.23;63.19;100848.69;178118;1266;46038;-83
2024/04/22 15:34:09;;;;;;;13.60;8.10;;;;;;;6.16;62.64;100850.27;179004;1262;44177;-81
2024/04/22 15:38:12;;;;;;;3.60;2.60;;;;;;;6.23;64.09;100850.11;178835;1261;58602;-82
2024/04/22 15:42:15;;;;;;;4.50;2.90;;;;;;;6.31;65.79;100852.68;179445;1262;44259;-82
2024/04/22 15:46:17;;;;;;;4.60;1.60;;;;;;;6.34;63.55;100853.00;179868;1262;44085;-82
2024/04/22 15:50:20;;;;;;;1.60;1.40;;;;;;;6.30;65.85;100851.12;178689;1262;44698;-82
2024/04/22 15:54:23;;;;;;;3.80;2.40;;;;;;;6.20;66.05;100848.47;178346;1263;46047;-81
2024/04/22 15:58:26;;;;;;;3.70;2.30;;;;;;;6.17;64.06;100855.68;178119;1263;59983;-81
2024/04/22 16:02:29;;;;;;;3.70;2.50;;;;;;;6.13;67.49;100855.38;177663;1261;46100;-81
2024/04/22 16:06:32;;;;;;;2.90;2.00;;;;;;;6.05;66.34;100857.58;178664;1263;45986;-82
2024/04/22 16:10:36;;;;;;;5.40;2.60;;;;;;;5.86;68.88;100854.28;177233;1263;46044;-81
2024/04/22 16:14:39;;;;;;;2.50;1.70;;;;;;;5.85;69.83;100856.13;177671;1263;46014;-82
2024/04/22 16:18:42;;;;;;;3.10;2.00;;;;;;;5.89;69.29;100855.71;178546;1262;58739;-81
2024/04/22 16:22:45;;;;;;;6.40;4.30;;;;;;;5.87;68.86;100855.98;177099;1266;46058;-81
2024/04/22 16:26:48;;;;;;;3.10;2.00;;;;;;;5.83;69.36;100858.35;179401;1262;44898;-82
2024/04/22 16:30:50;;;;;;;4.20;2.60;;;;;;;5.76;69.62;100858.34;178897;1262;44850;-80
2024/04/22 16:34:53;;;;;;;1.60;1.40;;;;;;;5.69;69.49;100859.78;180503;1262;44028;-82
2024/04/22 16:38:56;;;;;;;5.10;3.70;;;;;;;5.70;69.18;100863.21;179975;1262;58867;-81
2024/04/22 16:42:59;;;;;;;10.80;7.70;;;;;;;5.74;71.05;100862.52;180121;1262;43895;-82
2024/04/22 16:47:02;;;;;;;6.20;4.10;;;;;;;5.78;70.74;100863.71;180363;1262;44408;-82
2024/04/22 16:51:05;;;;;;;2.00;1.80;;;;;;;5.81;71.54;100862.67;180588;1263;44072;-82
2024/04/22 16:55:08;;;;;;;3.90;2.10;;;;;;;5.85;70.29;100858.05;177913;1266;46003;-81
2024/04/22 16:59:11;;;;;;;4.60;1.80;;;;;;;5.83;68.98;100858.83;178942;1264;57482;-82
2024/04/22 17:03:15;;;;;;;3.80;2.70;;;;;;;5.82;69.42;100855.77;177626;1263;45963;-82
2024/04/22 17:07:18;;;;;;;8.30;2.20;;;;;;;5.81;68.43;100854.73;177115;1262;46219;-82
2024/04/22 17:11:21;;;;;;;3.90;2.40;;;;;;;5.81;68.45;100854.02;177166;1264;44254;-81
2024/04/22 17:15:24;;;;;;;3.50;2.10;;;;;;;5.80;68.97;100853.20;177902;1262;46134;-82
2024/04/22 17:19:27;;;;;;;3.10;1.50;;;;;;;5.75;70.93;100852.77;177863;1263;57900;-82
2024/04/22 17:23:31;;;;;;;2.00;1.50;;;;;;;5.59;68.66;100850.98;177792;1262;44142;-82
2024/04/22 17:27:34;;;;;;;1.80;1.40;;;;;;;5.54;69.69;100851.38;179298;1263;43787;-80
2024/04/22 17:31:37;;;;;;;1.60;1.50;;;;;;;5.47;72.22;100849.46;179271;1262;45963;-80
2024/04/22 17:35:40;;;;;;;2.30;1.50;;;;;;;5.37;73.49;100849.61;179700;1262;44585;-82
2024/04/22 17:39:43;;;;;;;2.20;1.70;;;;;;;5.26;75.19;100856.51;179238;1262;58152;-81
2024/04/22 17:43:46;;;;;;;1.70;1.60;;;;;;;5.20;76.45;100859.98;178515;1262;46104;-81
2024/04/22 17:47:49;;;;;;;3.10;2.20;;;;;;;5.15;76.27;100861.09;177795;1263;46159;-81
2024/04/22 17:51:51;;;;;;;3.60;2.00;;;;;;;5.10;76.91;100857.09;178849;1263;44130;-82
2024/04/22 17:55:55;;;;;;;4.40;2.30;;;;;;;5.02;77.33;100858.70;178874;1262;46080;-82
2024/04/22 17:59:58;;;;;;;2.00;1.70;;;;;;;4.91;76.80;100861.52;177929;1263;60112;-81
2024/04/22 18:04:00;;;;;;;6.20;2.40;;;;;;;4.80;77.26;100871.89;178058;1262;46234;-81
2024/04/22 18:08:04;;;;;;;4.40;3.40;;;;;;;4.72;78.25;100874.97;179061;1262;44320;-81
2024/04/22 18:12:07;;;;;;;3.90;2.40;;;;;;;4.63;78.85;100874.28;178132;1262;45948;-81
2024/04/22 18:16:10;;;;;;;4.90;2.50;;;;;;;4.51;78.64;100876.95;177962;1262;46067;-81
2024/04/22 18:20:17;;;;;;;4.50;3.50;;;;;;;4.41;79.47;100881.13;178631;1262;58024;-81
2024/04/22 18:24:20;;;;;;;5.20;4.50;;;;;;;4.32;79.63;100887.84;179729;1262;43835;-82
2024/04/22 18:28:23;;;;;;;7.40;6.10;;;;;;;4.23;80.79;100894.05;179543;1262;44221;-81
2024/04/22 18:32:26;;;;;;;8.10;6.60;;;;;;;4.12;81.55;100897.16;177857;1262;46475;-80
2024/04/22 18:36:29;;;;;;;10.60;7.80;;;;;;;4.03;83.29;100900.74;177605;1262;46119;-82
2024/04/22 18:40:34;;;;;;;6.60;4.50;;;;;;;3.88;85.45;100898.73;177576;1266;58319;-81
2024/04/22 18:44:37;;;;;;;16.10;9.50;;;;;;;3.71;87.70;100901.77;177631;1263;46038;-82
2024/04/22 18:48:40;;;;;;;42.70;26.00;;;;;;;3.40;91.10;100907.30;177119;1266;46093;-81
2024/04/22 18:52:43;;;;;;;59.60;32.10;;;;;;;3.19;91.32;100906.58;178102;1262;46093;-81
2024/04/22 18:56:46;;;;;;;79.80;41.70;;;;;;;2.99;93.61;100906.66;178311;1262;45033;-80